Time;durP1;ratioP1;P1;durP2;ratioP2;P2;SDS_P1;SDS_P2;PMS_P1;PMS_P2;Temp;Humidity;BMP_temperature;BMP_pressure;BME280_temperature;BME280_humidity;BME280_pressure;Samples;Min_cycle;Max_cycle;Signal;HPM_P1;HPM_P2
2023/04/21 00:00:54;;;;;;;0.67;0.67;;;;;;;;;;7389251;19;20624;-92
2023/04/21 00:03:22;;;;;;;1.03;0.83;;;;;;;;;;7388563;19;20157;-92
2023/04/21 00:05:50;;;;;;;0.20;0.20;;;;;;;;;;7392300;19;20145;-92
2023/04/21 00:08:17;;;;;;;1.13;1.13;;;;;;;;;;7392029;19;20477;-93
2023/04/21 00:10:45;;;;;;;0.30;0.30;;;;;;;;;;7390144;19;20133;-92
2023/04/21 00:13:12;;;;;;;0.63;0.63;;;;;;;;;;7390711;19;20232;-92
2023/04/21 00:15:39;;;;;;;0.30;0.30;;;;;;;;;;7390944;19;20484;-92
2023/04/21 00:18:06;;;;;;;0.27;0.27;;;;;;;;;;7390096;19;20224;-92
2023/04/21 00:20:33;;;;;;;0.30;0.30;;;;;;;;;;7388831;19;20476;-92
2023/04/21 00:23:00;;;;;;;0.20;0.20;;;;;;;;;;7390115;19;20157;-92
2023/04/21 00:25:27;;;;;;;0.50;0.50;;;;;;;;;;7387112;19;20137;-92
2023/04/21 00:27:54;;;;;;;0.30;0.30;;;;;;;;;;7389070;19;20137;-92
2023/04/21 00:30:20;;;;;;;0.30;0.30;;;;;;;;;;7389009;19;20161;-92
2023/04/21 00:32:47;;;;;;;0.50;0.50;;;;;;;;;;7387726;19;20160;-91
2023/04/21 00:35:14;;;;;;;1.00;0.97;;;;;;;;;;7389516;19;20152;-93
2023/04/21 00:37:40;;;;;;;0.30;0.30;;;;;;;;;;7390156;19;20141;-92
2023/04/21 00:40:08;;;;;;;0.30;0.30;;;;;;;;;;7389196;19;20523;-92
2023/04/21 00:42:34;;;;;;;0.30;0.30;;;;;;;;;;7387253;19;20149;-92
2023/04/21 00:45:03;;;;;;;0.30;0.30;;;;;;;;;;7388502;19;20124;-92
2023/04/21 00:47:30;;;;;;;0.30;0.30;;;;;;;;;;7388433;19;20724;-92
2023/04/21 00:49:57;;;;;;;0.33;0.33;;;;;;;;;;7387023;19;20665;-92
2023/04/21 00:52:24;;;;;;;0.30;0.30;;;;;;;;;;7387626;19;20693;-91
2023/04/21 00:54:52;;;;;;;0.30;0.30;;;;;;;;;;7386151;19;20152;-91
2023/04/21 00:57:19;;;;;;;0.30;0.30;;;;;;;;;;7387762;19;20748;-91
2023/04/21 00:59:46;;;;;;;0.30;0.30;;;;;;;;;;7386579;19;20613;-92
2023/04/21 01:02:14;;;;;;;0.30;0.30;;;;;;;;;;7384643;19;20503;-92
2023/04/21 01:04:42;;;;;;;0.30;0.30;;;;;;;;;;7387046;19;20137;-91
2023/04/21 01:07:09;;;;;;;0.30;0.30;;;;;;;;;;7388940;19;20141;-91
2023/04/21 01:09:36;;;;;;;0.40;0.40;;;;;;;;;;7386598;19;20129;-91
2023/04/21 01:12:07;;;;;;;0.20;0.20;;;;;;;;;;7387653;19;20174;-92
2023/04/21 01:14:35;;;;;;;0.30;0.30;;;;;;;;;;7386167;19;20144;-92
2023/04/21 01:17:04;;;;;;;0.83;0.83;;;;;;;;;;7387520;19;20481;-92
2023/04/21 01:19:33;;;;;;;0.30;0.30;;;;;;;;;;7386646;19;20201;-92
2023/04/21 01:22:01;;;;;;;0.30;0.30;;;;;;;;;;7387504;19;20137;-91
2023/04/21 01:24:46;;;;;;;0.30;0.30;;;;;;;;;;7396533;19;20133;-92
2023/04/21 01:27:15;;;;;;;0.60;0.60;;;;;;;;;;7397072;19;20156;-92
2023/04/21 01:29:42;;;;;;;0.30;0.30;;;;;;;;;;7386335;19;20226;-92
2023/04/21 01:32:15;;;;;;;0.30;0.30;;;;;;;;;;7386001;19;20173;-92
2023/04/21 01:34:42;;;;;;;0.30;0.30;;;;;;;;;;7386933;19;20139;-92
2023/04/21 01:37:13;;;;;;;0.57;0.57;;;;;;;;;;7387492;19;20148;-91
2023/04/21 01:39:41;;;;;;;0.30;0.30;;;;;;;;;;7385910;19;20604;-91
2023/04/21 01:42:09;;;;;;;0.40;0.40;;;;;;;;;;7388170;19;20125;-92
2023/04/21 01:44:36;;;;;;;0.30;0.30;;;;;;;;;;7387192;19;20125;-92
2023/04/21 01:47:03;;;;;;;0.73;0.73;;;;;;;;;;7387531;19;20479;-92
2023/04/21 01:49:30;;;;;;;0.30;0.30;;;;;;;;;;7392364;19;20168;-91
2023/04/21 01:51:56;;;;;;;0.30;0.30;;;;;;;;;;7392138;19;20141;-91
2023/04/21 01:54:23;;;;;;;0.30;0.30;;;;;;;;;;7392216;19;20157;-91
2023/04/21 01:56:50;;;;;;;6.20;1.80;;;;;;;;;;7394626;19;20154;-89
2023/04/21 01:59:16;;;;;;;0.30;0.30;;;;;;;;;;7394686;19;20182;-92
2023/04/21 02:01:44;;;;;;;0.30;0.30;;;;;;;;;;7394606;19;20137;-92
2023/04/21 02:04:10;;;;;;;0.57;0.57;;;;;;;;;;7391564;19;20172;-92
2023/04/21 02:06:37;;;;;;;0.20;0.20;;;;;;;;;;7394578;19;20189;-91
2023/04/21 02:09:04;;;;;;;0.30;0.30;;;;;;;;;;7395788;19;20152;-91
2023/04/21 02:11:30;;;;;;;0.30;0.30;;;;;;;;;;7391382;19;20618;-91
2023/04/21 02:13:57;;;;;;;0.30;0.30;;;;;;;;;;7391984;19;20149;-92
2023/04/21 02:16:27;;;;;;;0.43;0.43;;;;;;;;;;7393291;19;20137;-91
2023/04/21 02:18:55;;;;;;;0.50;0.50;;;;;;;;;;7393375;19;20654;-92
2023/04/21 02:21:23;;;;;;;0.30;0.30;;;;;;;;;;7392872;19;20137;-91
2023/04/21 02:23:50;;;;;;;0.30;0.30;;;;;;;;;;7390385;19;20164;-92
2023/04/21 02:26:18;;;;;;;0.30;0.30;;;;;;;;;;7393997;19;20153;-92
2023/04/21 02:28:44;;;;;;;0.60;0.60;;;;;;;;;;7392919;19;20176;-91
2023/04/21 02:31:11;;;;;;;0.40;0.40;;;;;;;;;;7390479;19;20141;-91
2023/04/21 02:33:38;;;;;;;5.50;1.90;;;;;;;;;;7391867;19;20669;-91
2023/04/21 02:36:04;;;;;;;0.87;0.87;;;;;;;;;;7392963;19;20621;-92
2023/04/21 02:38:31;;;;;;;0.30;0.30;;;;;;;;;;7391308;19;20129;-90
2023/04/21 02:40:58;;;;;;;5.83;1.30;;;;;;;;;;7393875;19;20125;-91
2023/04/21 02:43:24;;;;;;;1.83;1.73;;;;;;;;;;7393000;19;20149;-89
2023/04/21 02:45:51;;;;;;;0.30;0.30;;;;;;;;;;7394074;19;20137;-91
2023/04/21 02:48:27;;;;;;;0.80;0.80;;;;;;;;;;7395623;19;20552;-92
2023/04/21 02:50:53;;;;;;;0.20;0.20;;;;;;;;;;7393791;19;20170;-91
2023/04/21 02:53:20;;;;;;;0.30;0.30;;;;;;;;;;7392108;19;20180;-91
2023/04/21 02:55:47;;;;;;;0.30;0.30;;;;;;;;;;7393827;19;20153;-92
2023/04/21 02:58:15;;;;;;;0.20;0.20;;;;;;;;;;7393488;19;20129;-92
2023/04/21 03:00:42;;;;;;;0.30;0.30;;;;;;;;;;7392029;19;20141;-91
2023/04/21 03:03:08;;;;;;;0.50;0.50;;;;;;;;;;7390481;19;20145;-92
2023/04/21 03:05:35;;;;;;;0.30;0.30;;;;;;;;;;7393146;19;20192;-91
2023/04/21 03:08:02;;;;;;;0.60;0.60;;;;;;;;;;7388180;19;20182;-91
2023/04/21 03:10:29;;;;;;;1.40;0.63;;;;;;;;;;7390722;19;20137;-91
2023/04/21 03:12:55;;;;;;;0.43;0.43;;;;;;;;;;7407177;19;20172;-92
2023/04/21 03:15:22;;;;;;;0.30;0.30;;;;;;;;;;7396583;19;20157;-91
2023/04/21 03:17:49;;;;;;;0.30;0.30;;;;;;;;;;7390745;19;20548;-91
2023/04/21 03:20:16;;;;;;;0.30;0.30;;;;;;;;;;7389745;19;20491;-92
2023/04/21 03:22:43;;;;;;;0.57;0.57;;;;;;;;;;7393889;19;20153;-92
2023/04/21 03:25:10;;;;;;;3.93;3.70;;;;;;;;;;7392551;19;20493;-92
2023/04/21 03:27:37;;;;;;;0.30;0.30;;;;;;;;;;7393819;19;20137;-91
2023/04/21 03:30:05;;;;;;;0.50;0.50;;;;;;;;;;7394707;19;20609;-90
2023/04/21 03:32:32;;;;;;;0.43;0.43;;;;;;;;;;7393388;19;20145;-89
2023/04/21 03:34:59;;;;;;;0.33;0.33;;;;;;;;;;7393291;19;20145;-90
2023/04/21 03:37:25;;;;;;;0.30;0.30;;;;;;;;;;7394111;19;20141;-91
2023/04/21 03:39:52;;;;;;;0.20;0.20;;;;;;;;;;7393123;19;20504;-92
2023/04/21 03:42:18;;;;;;;0.30;0.30;;;;;;;;;;7392501;19;20849;-91
2023/04/21 03:44:45;;;;;;;0.30;0.30;;;;;;;;;;7392861;19;20174;-92
2023/04/21 03:47:12;;;;;;;0.30;0.30;;;;;;;;;;7394620;19;20137;-92
2023/04/21 03:49:38;;;;;;;0.60;0.60;;;;;;;;;;7393486;19;20884;-91
2023/04/21 03:52:05;;;;;;;0.30;0.30;;;;;;;;;;7392730;19;20162;-91
2023/04/21 03:54:31;;;;;;;0.63;0.63;;;;;;;;;;7392327;19;20141;-92
2023/04/21 03:56:58;;;;;;;0.40;0.40;;;;;;;;;;7394144;19;20137;-91
2023/04/21 03:59:25;;;;;;;0.30;0.30;;;;;;;;;;7390929;19;20122;-91
2023/04/21 04:01:51;;;;;;;0.30;0.30;;;;;;;;;;7392303;19;20141;-91
2023/04/21 04:04:18;;;;;;;1.10;0.93;;;;;;;;;;7388235;19;20172;-89
2023/04/21 04:06:45;;;;;;;0.43;0.43;;;;;;;;;;7388304;19;20157;-92
2023/04/21 04:09:12;;;;;;;1.13;1.03;;;;;;;;;;7390195;19;20121;-91
2023/04/21 04:11:38;;;;;;;0.30;0.30;;;;;;;;;;7389697;19;20177;-90
2023/04/21 04:14:05;;;;;;;0.33;0.33;;;;;;;;;;7390955;19;20145;-92
2023/04/21 04:16:33;;;;;;;0.43;0.43;;;;;;;;;;7394051;19;20125;-91
2023/04/21 04:19:00;;;;;;;0.30;0.30;;;;;;;;;;7393157;19;20192;-91
2023/04/21 04:21:27;;;;;;;0.30;0.30;;;;;;;;;;7390292;19;20137;-92
2023/04/21 04:23:54;;;;;;;0.30;0.30;;;;;;;;;;7387657;19;20168;-92
2023/04/21 04:26:23;;;;;;;0.40;0.40;;;;;;;;;;7387605;19;20153;-92
2023/04/21 04:28:51;;;;;;;0.27;0.27;;;;;;;;;;7389841;19;20163;-92
2023/04/21 04:31:18;;;;;;;0.30;0.30;;;;;;;;;;7390688;19;20137;-92
2023/04/21 04:33:45;;;;;;;0.30;0.30;;;;;;;;;;7389316;19;20607;-92
2023/04/21 04:36:11;;;;;;;0.50;0.50;;;;;;;;;;7392813;19;20156;-91
2023/04/21 04:38:39;;;;;;;0.40;0.40;;;;;;;;;;7393041;19;20173;-92
2023/04/21 04:41:07;;;;;;;0.30;0.30;;;;;;;;;;7389372;19;20137;-92
2023/04/21 04:43:38;;;;;;;0.30;0.30;;;;;;;;;;7390001;19;20504;-89
2023/04/21 04:46:05;;;;;;;0.20;0.20;;;;;;;;;;7389249;19;20144;-91
2023/04/21 04:48:31;;;;;;;0.30;0.30;;;;;;;;;;7390648;19;20602;-90
2023/04/21 04:50:58;;;;;;;0.40;0.40;;;;;;;;;;7390552;19;20133;-91
2023/04/21 04:53:27;;;;;;;0.20;0.20;;;;;;;;;;7388569;19;20542;-90
2023/04/21 04:55:53;;;;;;;0.30;0.30;;;;;;;;;;7389600;19;20117;-89
2023/04/21 04:58:21;;;;;;;0.30;0.30;;;;;;;;;;7390566;19;20125;-91
2023/04/21 05:00:47;;;;;;;0.20;0.20;;;;;;;;;;7390262;19;20133;-91
2023/04/21 05:03:14;;;;;;;2.50;0.70;;;;;;;;;;7390318;19;20153;-91
2023/04/21 05:05:40;;;;;;;0.30;0.30;;;;;;;;;;7387497;19;20145;-91
2023/04/21 05:08:07;;;;;;;0.50;0.50;;;;;;;;;;7395426;19;20129;-91
2023/04/21 05:10:34;;;;;;;0.30;0.30;;;;;;;;;;7407086;19;20140;-91
2023/04/21 05:13:00;;;;;;;0.30;0.30;;;;;;;;;;7394557;19;20149;-92
2023/04/21 05:15:27;;;;;;;0.30;0.30;;;;;;;;;;7388518;19;20160;-92
2023/04/21 05:17:54;;;;;;;1.03;1.03;;;;;;;;;;7387606;19;20141;-92
2023/04/21 05:20:21;;;;;;;0.30;0.30;;;;;;;;;;7388758;19;20671;-91
2023/04/21 05:22:47;;;;;;;0.30;0.30;;;;;;;;;;7386660;19;20177;-90
2023/04/21 05:25:14;;;;;;;0.93;0.80;;;;;;;;;;7388269;19;20168;-91
2023/04/21 05:27:41;;;;;;;0.70;0.47;;;;;;;;;;7388001;19;20528;-92
2023/04/21 05:30:09;;;;;;;0.30;0.30;;;;;;;;;;7386006;19;20144;-91
2023/04/21 05:32:35;;;;;;;0.60;0.60;;;;;;;;;;7387827;19;20193;-91
2023/04/21 05:35:02;;;;;;;0.60;0.60;;;;;;;;;;7389665;19;20625;-91
2023/04/21 05:37:29;;;;;;;0.43;0.43;;;;;;;;;;7390741;19;20480;-92
2023/04/21 05:39:56;;;;;;;0.30;0.30;;;;;;;;;;7388675;19;20141;-93
2023/04/21 05:42:22;;;;;;;0.30;0.30;;;;;;;;;;7386527;19;20164;-93
2023/04/21 05:44:49;;;;;;;0.77;0.77;;;;;;;;;;7390294;19;20602;-93
2023/04/21 05:47:16;;;;;;;1.00;1.00;;;;;;;;;;7386627;19;20165;-93
2023/04/21 05:49:48;;;;;;;0.80;0.80;;;;;;;;;;7384076;19;20514;-92
2023/04/21 05:52:16;;;;;;;0.30;0.30;;;;;;;;;;7389469;19;20138;-92
2023/04/21 05:54:43;;;;;;;1.30;0.70;;;;;;;;;;7390818;19;20141;-92
2023/04/21 05:57:10;;;;;;;0.70;0.70;;;;;;;;;;7387283;19;20154;-91
2023/04/21 05:59:36;;;;;;;0.30;0.30;;;;;;;;;;7385121;19;20132;-92
2023/04/21 06:02:03;;;;;;;1.10;0.57;;;;;;;;;;7384086;19;20133;-92
2023/04/21 06:04:30;;;;;;;0.60;0.50;;;;;;;;;;7383785;19;20710;-92
2023/04/21 06:06:57;;;;;;;0.30;0.30;;;;;;;;;;7378263;19;20149;-90
2023/04/21 06:09:23;;;;;;;0.53;0.53;;;;;;;;;;7388329;19;20161;-91
2023/04/21 06:11:50;;;;;;;0.30;0.30;;;;;;;;;;7387010;19;20133;-93
2023/04/21 06:14:17;;;;;;;0.30;0.30;;;;;;;;;;7385913;19;20178;-91
2023/04/21 06:16:44;;;;;;;0.40;0.40;;;;;;;;;;7389267;19;20129;-90
2023/04/21 06:19:11;;;;;;;1.07;0.50;;;;;;;;;;7387811;19;20233;-92
2023/04/21 06:21:37;;;;;;;0.30;0.30;;;;;;;;;;7387874;19;20122;-93
2023/04/21 06:24:04;;;;;;;0.73;0.73;;;;;;;;;;7386975;19;20145;-92
2023/04/21 06:26:31;;;;;;;0.50;0.50;;;;;;;;;;7388868;19;20198;-93
2023/04/21 06:28:57;;;;;;;0.43;0.43;;;;;;;;;;7388354;19;20160;-92
2023/04/21 06:31:24;;;;;;;0.60;0.60;;;;;;;;;;7387701;19;20154;-92
2023/04/21 06:33:50;;;;;;;0.47;0.47;;;;;;;;;;7387689;19;20621;-93
2023/04/21 06:36:17;;;;;;;0.50;0.50;;;;;;;;;;7395114;19;20129;-92
2023/04/21 06:38:44;;;;;;;1.23;1.13;;;;;;;;;;7395342;19;20609;-92
2023/04/21 06:41:10;;;;;;;0.60;0.57;;;;;;;;;;7394759;19;20153;-92
2023/04/21 06:43:37;;;;;;;0.70;0.70;;;;;;;;;;7393130;19;20145;-92
2023/04/21 06:46:04;;;;;;;0.50;0.50;;;;;;;;;;7394550;19;20546;-92
2023/04/21 06:48:30;;;;;;;2.10;2.00;;;;;;;;;;7394191;19;20512;-91
2023/04/21 06:50:57;;;;;;;0.30;0.30;;;;;;;;;;7394457;19;20145;-92
2023/04/21 06:53:24;;;;;;;0.30;0.30;;;;;;;;;;7391057;19;20525;-92
2023/04/21 06:55:52;;;;;;;0.73;0.73;;;;;;;;;;7394385;19;20157;-92
2023/04/21 06:58:18;;;;;;;0.80;0.80;;;;;;;;;;7393236;19;20133;-92
2023/04/21 07:00:46;;;;;;;0.70;0.70;;;;;;;;;;7394834;19;20144;-92
2023/04/21 07:03:13;;;;;;;0.40;0.40;;;;;;;;;;7391608;19;20518;-92
2023/04/21 07:05:40;;;;;;;0.30;0.30;;;;;;;;;;7393932;19;20612;-90
2023/04/21 07:08:07;;;;;;;0.30;0.30;;;;;;;;;;7393853;19;20466;-92
2023/04/21 07:10:33;;;;;;;0.40;0.40;;;;;;;;;;7392509;19;20595;-91
2023/04/21 07:13:00;;;;;;;1.07;1.07;;;;;;;;;;7391694;19;20153;-90
2023/04/21 07:15:26;;;;;;;0.40;0.40;;;;;;;;;;7393791;19;20149;-92
2023/04/21 07:17:53;;;;;;;0.50;0.50;;;;;;;;;;7393135;19;20182;-93
2023/04/21 07:20:20;;;;;;;0.57;0.57;;;;;;;;;;7393072;19;20150;-92
2023/04/21 07:22:47;;;;;;;0.47;0.47;;;;;;;;;;7393473;19;20182;-91
2023/04/21 07:25:14;;;;;;;0.40;0.40;;;;;;;;;;7393281;19;20502;-92
2023/04/21 07:27:41;;;;;;;1.33;1.10;;;;;;;;;;7392464;19;20133;-89
2023/04/21 07:30:08;;;;;;;1.90;1.80;;;;;;;;;;7392400;19;20134;-92
2023/04/21 07:32:37;;;;;;;0.63;0.63;;;;;;;;;;7391751;19;20202;-91
2023/04/21 07:35:05;;;;;;;0.83;0.83;;;;;;;;;;7392407;19;20149;-92
2023/04/21 07:37:32;;;;;;;0.60;0.60;;;;;;;;;;7393353;19;20181;-92
2023/04/21 07:39:58;;;;;;;1.10;1.07;;;;;;;;;;7391535;19;20122;-91
2023/04/21 07:42:25;;;;;;;0.40;0.40;;;;;;;;;;7394228;19;20137;-90
2023/04/21 07:44:53;;;;;;;1.00;0.90;;;;;;;;;;7391434;19;20542;-92
2023/04/21 07:47:20;;;;;;;0.67;0.50;;;;;;;;;;7391978;19;20637;-92
2023/04/21 07:49:47;;;;;;;0.83;0.83;;;;;;;;;;7393949;19;20550;-92
2023/04/21 07:52:13;;;;;;;0.77;0.77;;;;;;;;;;7393058;19;20137;-92
2023/04/21 07:54:40;;;;;;;3.40;3.13;;;;;;;;;;7392981;19;20629;-91
2023/04/21 07:57:07;;;;;;;0.83;0.83;;;;;;;;;;7393494;19;20532;-91
2023/04/21 07:59:34;;;;;;;0.43;0.43;;;;;;;;;;7393787;19;20126;-90
2023/04/21 08:02:01;;;;;;;0.80;0.70;;;;;;;;;;7390556;19;20161;-90
2023/04/21 08:04:27;;;;;;;1.07;1.07;;;;;;;;;;7389269;19;20169;-92
2023/04/21 08:06:54;;;;;;;8.23;1.50;;;;;;;;;;7393109;19;20164;-92
2023/04/21 08:09:21;;;;;;;0.90;0.90;;;;;;;;;;7391633;19;20137;-89
2023/04/21 08:11:48;;;;;;;1.13;0.90;;;;;;;;;;7389987;19;20168;-91
2023/04/21 08:14:15;;;;;;;1.80;1.70;;;;;;;;;;7407010;19;20145;-91
2023/04/21 08:16:42;;;;;;;0.60;0.60;;;;;;;;;;7405910;19;20136;-93
2023/04/21 08:19:09;;;;;;;0.83;0.83;;;;;;;;;;7391344;19;20165;-91
2023/04/21 08:21:35;;;;;;;0.70;0.70;;;;;;;;;;7391665;19;20141;-92
2023/04/21 08:24:02;;;;;;;0.80;0.80;;;;;;;;;;7389115;19;20164;-92
2023/04/21 08:26:29;;;;;;;0.60;0.43;;;;;;;;;;7392698;19;20129;-91
2023/04/21 08:28:56;;;;;;;1.07;1.00;;;;;;;;;;7391191;19;20590;-91
2023/04/21 08:31:22;;;;;;;0.87;0.53;;;;;;;;;;7392409;19;20136;-92
2023/04/21 08:33:49;;;;;;;0.70;0.70;;;;;;;;;;7390412;19;20149;-91
2023/04/21 08:36:28;;;;;;;0.47;0.47;;;;;;;;;;7390631;19;20118;-92
2023/04/21 08:38:56;;;;;;;0.83;0.83;;;;;;;;;;7391269;19;20161;-92
2023/04/21 08:41:24;;;;;;;0.63;0.63;;;;;;;;;;7391228;19;20656;-87
2023/04/21 08:43:50;;;;;;;0.87;0.87;;;;;;;;;;7386039;19;20720;-90
2023/04/21 08:46:17;;;;;;;0.93;0.93;;;;;;;;;;7387666;19;20489;-88
2023/04/21 08:48:46;;;;;;;0.93;0.93;;;;;;;;;;7387924;19;20141;-92
2023/04/21 08:51:20;;;;;;;1.03;1.00;;;;;;;;;;7396506;19;20137;-92
2023/04/21 08:53:46;;;;;;;0.47;0.47;;;;;;;;;;7391485;19;20159;-92
2023/04/21 08:56:13;;;;;;;0.50;0.50;;;;;;;;;;7397341;19;20154;-90
2023/04/21 08:58:40;;;;;;;1.70;1.60;;;;;;;;;;7396314;19;20133;-92
2023/04/21 09:01:07;;;;;;;0.40;0.40;;;;;;;;;;7394329;19;20133;-93
2023/04/21 09:03:34;;;;;;;1.17;1.13;;;;;;;;;;7388622;19;20162;-92
2023/04/21 09:06:07;;;;;;;1.07;1.07;;;;;;;;;;7390331;19;20143;-93
2023/04/21 09:08:41;;;;;;;1.03;1.03;;;;;;;;;;7388315;19;20137;-91
2023/04/21 09:11:12;;;;;;;0.63;0.63;;;;;;;;;;7388005;19;20162;-93
2023/04/21 09:13:41;;;;;;;1.50;1.40;;;;;;;;;;7388060;19;20625;-92
2023/04/21 09:16:17;;;;;;;1.33;1.23;;;;;;;;;;7387916;19;20133;-92
2023/04/21 09:18:43;;;;;;;1.53;1.10;;;;;;;;;;7390079;19;20146;-93
2023/04/21 09:21:15;;;;;;;0.80;0.80;;;;;;;;;;7388981;19;20509;-93
2023/04/21 09:23:49;;;;;;;0.40;0.40;;;;;;;;;;7387105;19;20514;-93
2023/04/21 09:26:17;;;;;;;1.13;1.13;;;;;;;;;;7389715;19;20153;-92
2023/04/21 09:28:49;;;;;;;0.83;0.83;;;;;;;;;;7389946;19;20136;-92
2023/04/21 09:31:23;;;;;;;0.60;0.60;;;;;;;;;;7387513;19;20133;-92
2023/04/21 09:33:55;;;;;;;0.67;0.67;;;;;;;;;;7387459;19;20152;-92
2023/04/21 09:36:28;;;;;;;0.70;0.70;;;;;;;;;;7389159;19;20500;-93
2023/04/21 09:39:00;;;;;;;1.00;1.00;;;;;;;;;;7389947;19;20125;-91
2023/04/21 09:41:33;;;;;;;0.63;0.63;;;;;;;;;;7387708;19;20133;-91
2023/04/21 09:44:05;;;;;;;0.83;0.83;;;;;;;;;;7387857;19;20598;-92
2023/04/21 09:46:33;;;;;;;0.87;0.87;;;;;;;;;;7389055;19;20137;-92
2023/04/21 09:49:01;;;;;;;1.00;1.00;;;;;;;;;;7389128;19;20153;-92
2023/04/21 09:51:30;;;;;;;0.97;0.97;;;;;;;;;;7386627;19;20141;-92
2023/04/21 09:54:19;;;;;;;0.63;0.63;;;;;;;;;;7386570;19;20167;-92
2023/04/21 09:56:58;;;;;;;1.57;0.90;;;;;;;;;;7388830;19;20121;-91
2023/04/21 09:59:27;;;;;;;0.50;0.50;;;;;;;;;;7388254;19;20137;-92
2023/04/21 10:01:55;;;;;;;0.60;0.60;;;;;;;;;;7389881;19;20133;-92
2023/04/21 10:04:24;;;;;;;1.27;1.23;;;;;;;;;;7386873;19;20145;-91
2023/04/21 10:06:52;;;;;;;2.20;1.13;;;;;;;;;;7386263;19;20137;-91
2023/04/21 10:09:20;;;;;;;0.57;0.57;;;;;;;;;;7392643;19;20630;-92
2023/04/21 10:11:47;;;;;;;0.50;0.50;;;;;;;;;;7397730;19;20141;-92
2023/04/21 10:14:14;;;;;;;0.70;0.70;;;;;;;;;;7393150;19;20520;-92
2023/04/21 10:16:41;;;;;;;1.57;0.83;;;;;;;;;;7395788;19;20509;-91
2023/04/21 10:19:30;;;;;;;0.70;0.70;;;;;;;;;;7395514;19;20486;-91
2023/04/21 10:21:57;;;;;;;0.63;0.63;;;;;;;;;;7395506;19;20137;-91
2023/04/21 10:24:28;;;;;;;0.83;0.83;;;;;;;;;;7391840;19;20149;-91
2023/04/21 10:26:58;;;;;;;1.30;1.10;;;;;;;;;;7395853;19;20137;-92
2023/04/21 10:29:30;;;;;;;0.40;0.40;;;;;;;;;;7395234;19;20811;-92
2023/04/21 10:32:30;;;;;;;0.37;0.37;;;;;;;;;;7392350;19;20147;-92
2023/04/21 10:34:57;;;;;;;0.40;0.40;;;;;;;;;;7394785;19;20137;-91
2023/04/21 10:37:23;;;;;;;0.70;0.70;;;;;;;;;;7395351;19;20144;-92
2023/04/21 10:39:52;;;;;;;0.40;0.40;;;;;;;;;;7394931;19;20141;-91
2023/04/21 10:42:24;;;;;;;0.87;0.87;;;;;;;;;;7394484;19;20133;-90
2023/04/21 10:44:57;;;;;;;0.93;0.60;;;;;;;;;;7391123;19;20166;-91
2023/04/21 10:47:42;;;;;;;0.67;0.67;;;;;;;;;;7395004;19;20121;-91
2023/04/21 10:50:11;;;;;;;1.03;0.60;;;;;;;;;;7392101;19;20157;-90
2023/04/21 10:52:37;;;;;;;0.80;0.80;;;;;;;;;;7394584;19;20144;-90
2023/04/21 10:55:07;;;;;;;0.47;0.47;;;;;;;;;;7394660;19;20165;-89
2023/04/21 10:57:34;;;;;;;0.90;0.90;;;;;;;;;;7394946;19;20150;-89
2023/04/21 11:00:05;;;;;;;1.10;1.10;;;;;;;;;;7398777;19;20165;-89
2023/04/21 11:02:33;;;;;;;1.23;0.97;;;;;;;;;;7398390;19;20578;-89
2023/04/21 11:05:05;;;;;;;0.73;0.73;;;;;;;;;;7395817;19;20149;-89
2023/04/21 11:07:32;;;;;;;0.88;0.88;;;;;;;;;;7399359;19;20141;-89
2023/04/21 11:10:09;;;;;;;0.63;0.63;;;;;;;;;;7398528;19;20157;-89
2023/04/21 11:12:38;;;;;;;0.93;0.93;;;;;;;;;;7397724;19;20236;-89
2023/04/21 11:15:07;;;;;;;1.05;0.90;;;;;;;;;;7393559;19;20165;-89
2023/04/21 11:17:34;;;;;;;0.50;0.50;;;;;;;;;;7412789;19;20141;-88
2023/04/21 11:20:03;;;;;;;0.57;0.57;;;;;;;;;;7417222;19;20209;-89
2023/04/21 11:22:29;;;;;;;0.65;0.65;;;;;;;;;;7396615;19;20141;-90
2023/04/21 11:24:57;;;;;;;0.90;0.65;;;;;;;;;;7396933;19;20141;-89
2023/04/21 11:27:28;;;;;;;0.65;0.65;;;;;;;;;;7397090;19;20637;-89
2023/04/21 11:29:56;;;;;;;0.70;0.70;;;;;;;;;;7394721;19;20625;-89
2023/04/21 11:32:23;;;;;;;0.73;0.73;;;;;;;;;;7395704;19;20140;-88
2023/04/21 11:34:49;;;;;;;0.95;0.82;;;;;;;;;;7394470;19;20133;-89
2023/04/21 11:37:22;;;;;;;1.50;0.65;;;;;;;;;;7396444;19;20129;-88
2023/04/21 11:39:49;;;;;;;0.85;0.85;;;;;;;;;;7394817;19;20145;-89
2023/04/21 11:42:21;;;;;;;1.38;1.27;;;;;;;;;;7394455;19;20141;-90
2023/04/21 11:44:48;;;;;;;0.77;0.77;;;;;;;;;;7392894;19;20133;-89
2023/04/21 11:47:16;;;;;;;0.60;0.60;;;;;;;;;;7393446;19;20133;-90
2023/04/21 11:49:46;;;;;;;1.05;0.93;;;;;;;;;;7390277;19;20205;-91
2023/04/21 11:52:36;;;;;;;0.40;0.40;;;;;;;;;;7392275;19;20133;-91
2023/04/21 11:55:14;;;;;;;0.50;0.50;;;;;;;;;;7389369;19;20129;-90
2023/04/21 11:57:41;;;;;;;0.60;0.60;;;;;;;;;;7390752;19;20133;-91
2023/04/21 12:00:10;;;;;;;0.87;0.83;;;;;;;;;;7392427;19;20646;-89
2023/04/21 12:02:37;;;;;;;0.80;0.80;;;;;;;;;;7392140;19;20165;-90
2023/04/21 12:05:08;;;;;;;1.00;0.90;;;;;;;;;;7389659;19;20145;-89
2023/04/21 12:07:44;;;;;;;0.63;0.63;;;;;;;;;;7393163;19;20468;-91
2023/04/21 12:10:13;;;;;;;0.40;0.40;;;;;;;;;;7392711;19;20136;-89
2023/04/21 12:12:41;;;;;;;0.95;0.95;;;;;;;;;;7413077;19;20157;-88
2023/04/21 12:15:09;;;;;;;0.98;0.90;;;;;;;;;;7421854;19;20184;-87
2023/04/21 12:17:44;;;;;;;0.55;0.55;;;;;;;;;;7426807;19;20137;-88
2023/04/21 12:20:12;;;;;;;0.60;0.60;;;;;;;;;;7426872;19;20129;-87
2023/04/21 12:22:38;;;;;;;1.13;0.70;;;;;;;;;;7425805;19;20173;-88
2023/04/21 12:25:05;;;;;;;1.00;0.90;;;;;;;;;;7426216;19;20153;-89
2023/04/21 12:27:32;;;;;;;0.50;0.50;;;;;;;;;;7426778;19;20129;-88
2023/04/21 12:29:59;;;;;;;0.50;0.50;;;;;;;;;;7426107;19;20141;-87
2023/04/21 12:32:26;;;;;;;0.50;0.50;;;;;;;;;;7425065;19;20130;-88
2023/04/21 12:34:52;;;;;;;1.38;1.25;;;;;;;;;;7424000;19;20129;-90
2023/04/21 12:37:19;;;;;;;0.88;0.88;;;;;;;;;;7399021;19;20141;-91
2023/04/21 12:39:45;;;;;;;1.27;1.27;;;;;;;;;;7393575;19;20164;-91
2023/04/21 12:42:12;;;;;;;0.63;0.63;;;;;;;;;;7391393;19;20137;-91
2023/04/21 12:44:39;;;;;;;0.43;0.43;;;;;;;;;;7390704;19;20141;-90
2023/04/21 12:47:06;;;;;;;0.73;0.73;;;;;;;;;;7389261;19;20205;-92
2023/04/21 12:49:32;;;;;;;1.03;1.03;;;;;;;;;;7390669;19;20138;-91
2023/04/21 12:51:59;;;;;;;0.70;0.70;;;;;;;;;;7391323;19;20173;-91
2023/04/21 12:54:26;;;;;;;0.63;0.63;;;;;;;;;;7388144;19;20149;-92
2023/04/21 12:56:52;;;;;;;0.80;0.57;;;;;;;;;;7390796;19;20482;-92
2023/04/21 12:59:20;;;;;;;0.77;0.77;;;;;;;;;;7389948;19;20149;-91
2023/04/21 13:01:47;;;;;;;1.73;0.87;;;;;;;;;;7387821;19;20151;-91
2023/04/21 13:04:13;;;;;;;0.83;0.83;;;;;;;;;;7386828;19;20153;-91
2023/04/21 13:06:40;;;;;;;0.60;0.60;;;;;;;;;;7391066;19;20137;-90
2023/04/21 13:09:07;;;;;;;0.73;0.73;;;;;;;;;;7387705;19;20601;-91
2023/04/21 13:11:34;;;;;;;0.90;0.90;;;;;;;;;;7388491;19;20157;-91
2023/04/21 13:14:02;;;;;;;0.60;0.60;;;;;;;;;;7387271;19;20173;-91
2023/04/21 13:16:29;;;;;;;0.77;0.67;;;;;;;;;;7383472;19;20144;-91
2023/04/21 13:18:56;;;;;;;0.40;0.40;;;;;;;;;;7388567;19;20136;-91
2023/04/21 13:21:23;;;;;;;0.70;0.70;;;;;;;;;;7389617;19;20189;-91
2023/04/21 13:23:49;;;;;;;0.70;0.70;;;;;;;;;;7383846;19;20551;-91
2023/04/21 13:26:17;;;;;;;0.40;0.40;;;;;;;;;;7388316;19;20609;-91
2023/04/21 13:28:43;;;;;;;0.50;0.50;;;;;;;;;;7386981;19;20740;-90
2023/04/21 13:31:10;;;;;;;2.00;1.10;;;;;;;;;;7389726;19;20156;-90
2023/04/21 13:33:37;;;;;;;1.57;1.40;;;;;;;;;;7387332;19;20171;-89
2023/04/21 13:36:04;;;;;;;0.60;0.60;;;;;;;;;;7386938;19;20141;-91
2023/04/21 13:38:32;;;;;;;0.47;0.47;;;;;;;;;;7389017;19;20136;-91
2023/04/21 13:41:01;;;;;;;0.97;0.97;;;;;;;;;;7387927;19;20144;-90
2023/04/21 13:43:27;;;;;;;1.13;1.03;;;;;;;;;;7382591;19;20141;-91
2023/04/21 13:45:54;;;;;;;0.63;0.63;;;;;;;;;;7387509;19;20160;-88
2023/04/21 13:48:22;;;;;;;1.33;0.67;;;;;;;;;;7388004;19;20141;-91
2023/04/21 13:50:50;;;;;;;0.40;0.40;;;;;;;;;;7385131;19;20133;-91
2023/04/21 13:53:17;;;;;;;1.00;1.00;;;;;;;;;;7387048;19;20148;-91
2023/04/21 13:55:46;;;;;;;0.77;0.77;;;;;;;;;;7380420;19;20496;-91
2023/04/21 13:58:15;;;;;;;0.60;0.60;;;;;;;;;;7382650;19;20557;-91
2023/04/21 14:00:42;;;;;;;0.93;0.93;;;;;;;;;;7385834;19;20136;-87
2023/04/21 14:03:08;;;;;;;0.70;0.70;;;;;;;;;;7387308;19;20148;-89
2023/04/21 14:05:35;;;;;;;0.80;0.80;;;;;;;;;;7388962;19;20129;-89
2023/04/21 14:08:02;;;;;;;0.60;0.60;;;;;;;;;;7390143;19;20137;-89
2023/04/21 14:10:30;;;;;;;1.80;0.82;;;;;;;;;;7389771;19;20132;-89
2023/04/21 14:12:56;;;;;;;0.63;0.63;;;;;;;;;;7383428;19;20161;-86
